KEGV

Eagle River Union Airport

Eagle River, Wisconsin, USA
METAR KEGV 222035Z AUTO 30013G19KT 10SM SCT065 BKN075 OVC090 12/M04 A2989 RMK AO2 T01171040
Observed Flight Rules
Oct-22 @ 20:35 UTC (13 minutes ago) Visual Flight Rules
Wind Visibility Clouds
300° at 13 knots
 Gusting to 19 knots
10 miles
  • Scattered at 6,500' AGL
  • Broken at 7,500' AGL
  • Overcast at 9,000' AGL
Temperatures Readings
Current 12°C / 54°F
Dewpoint -4°C / 25°F
Humidity 33%
Altimeter 29.89" Hg
Pressure 1012 hPa
Elevation 500
METAR KEGV 222035Z AUTO 30013G19KT 10SM SCT065 BKN075 OVC090 12/M04 A2989 RMK AO2 T01171040
Observed Flight Rules
Oct-22 @ 20:35 UTC
(13 minutes ago)
VFR
Wind Visibility
300° at 13 knots
 Gusting to 19 knots
10 miles
Clouds
  • Scattered at 6,500' AGL
  • Broken at 7,500' AGL
  • Overcast at 9,000' AGL
Temperature Dewpoint
12°C / 54°F -4°C / 25°F
Humidity Altimeter Pressure
33% 29.89" Hg 1012 hPa